createdAt,value
2019-05-05T00:01:34.955Z,21.37
2019-05-05T00:04:20.489Z,18.83
2019-05-05T00:06:49.397Z,31.03
2019-05-05T00:09:18.251Z,19.23
2019-05-05T00:11:57.800Z,15.30
2019-05-05T00:14:37.049Z,26.77
2019-05-05T00:17:07.529Z,23.83
2019-05-05T00:19:36.389Z,24.53
2019-05-05T00:22:05.244Z,18.10
2019-05-05T00:24:35.057Z,22.13
2019-05-05T00:27:04.351Z,21.67
2019-05-05T00:29:34.721Z,40.17
2019-05-05T00:32:04.949Z,75.83
2019-05-05T00:34:34.976Z,26.70
2019-05-05T00:37:04.662Z,18.90
2019-05-05T00:39:34.531Z,17.13
2019-05-05T00:42:04.756Z,17.37
2019-05-05T00:44:35.205Z,20.03
2019-05-05T00:47:08.724Z,21.23
2019-05-05T00:49:46.366Z,30.70
2019-05-05T00:52:09.666Z,38.87
2019-05-05T00:54:38.673Z,23.97
2019-05-05T00:57:07.526Z,22.93
2019-05-05T00:59:36.367Z,22.37
2019-05-05T01:02:24.958Z,22.33
2019-05-05T01:05:01.107Z,28.83
2019-05-05T01:07:31.114Z,27.40
2019-05-05T01:09:59.944Z,23.70
2019-05-05T01:12:28.789Z,16.67
2019-05-05T01:14:57.715Z,15.00
2019-05-05T01:17:26.563Z,12.13
2019-05-05T01:20:03.191Z,13.97
2019-05-05T01:22:25.951Z,14.17
2019-05-05T01:24:55.362Z,13.40
2019-05-05T01:27:25.438Z,10.80
2019-05-05T01:29:54.732Z,16.40
2019-05-05T01:32:30.915Z,11.87
2019-05-05T01:35:00.260Z,15.23
2019-05-05T01:37:30.669Z,12.37
2019-05-05T01:40:04.989Z,11.50
2019-05-05T01:42:35.238Z,12.87
2019-05-05T01:45:04.639Z,9.50
2019-05-05T01:47:34.733Z,10.30
2019-05-05T01:50:17.587Z,9.60
2019-05-05T01:52:35.809Z,10.50
2019-05-05T01:55:06.511Z,8.47
2019-05-05T01:57:35.385Z,9.50
2019-05-05T02:00:06.710Z,9.27
2019-05-05T02:02:35.565Z,9.47
2019-05-05T02:05:06.768Z,12.10
2019-05-05T02:07:35.665Z,10.33
2019-05-05T02:10:06.423Z,11.30
2019-05-05T02:12:35.406Z,9.33
2019-05-05T02:15:08.893Z,10.20
2019-05-05T02:17:37.750Z,13.83
2019-05-05T02:20:07.081Z,12.47
2019-05-05T02:22:35.925Z,13.87
2019-05-05T02:25:06.891Z,12.27
2019-05-05T02:27:35.782Z,7.97
2019-05-05T02:30:08.102Z,10.43
2019-05-05T02:32:38.504Z,8.17
2019-05-05T02:35:16.323Z,14.63
2019-05-05T02:37:45.637Z,17.57
2019-05-05T02:40:15.935Z,12.50
2019-05-05T02:42:45.887Z,8.87
2019-05-05T02:45:25.117Z,8.17
2019-05-05T02:48:01.812Z,8.17
2019-05-05T02:50:48.397Z,8.17
2019-05-05T02:53:04.707Z,11.13
2019-05-05T02:55:35.117Z,10.67
2019-05-05T02:58:03.970Z,11.03
2019-05-05T03:00:37.170Z,10.43
2019-05-05T03:03:07.470Z,13.43
2019-05-05T03:05:36.415Z,14.87
2019-05-05T03:08:05.667Z,15.33
2019-05-05T03:10:35.204Z,13.03
2019-05-05T03:13:05.262Z,13.50
2019-05-05T03:15:45.877Z,13.83
2019-05-05T03:18:14.831Z,12.67
2019-05-05T03:20:43.980Z,11.33
2019-05-05T03:23:13.657Z,13.40
2019-05-05T03:25:44.023Z,14.27
2019-05-05T03:28:13.713Z,11.57
2019-05-05T03:30:45.533Z,10.73
2019-05-05T03:33:16.197Z,8.43
2019-05-05T03:35:46.010Z,10.13
2019-05-05T03:38:15.612Z,6.60
2019-05-05T03:40:46.207Z,8.67
2019-05-05T03:43:16.714Z,8.27
2019-05-05T03:45:47.306Z,7.80
2019-05-05T03:48:16.171Z,8.93
2019-05-05T03:50:45.001Z,6.93
2019-05-05T03:53:14.112Z,10.30
2019-05-05T03:55:44.046Z,7.13
2019-05-05T03:58:14.681Z,8.40
2019-05-05T04:00:49.348Z,10.30
2019-05-05T04:03:18.176Z,14.50
2019-05-05T04:05:53.715Z,13.50
2019-05-05T04:08:23.475Z,10.97
2019-05-05T04:10:54.476Z,11.03
2019-05-05T04:13:24.281Z,11.43
2019-05-05T04:16:11.174Z,11.77
2019-05-05T04:18:54.246Z,9.43
2019-05-05T04:21:32.831Z,11.87
2019-05-05T04:23:53.692Z,8.93
2019-05-05T04:26:23.493Z,10.07
2019-05-05T04:28:54.129Z,10.97
2019-05-05T04:31:24.168Z,14.27
2019-05-05T04:33:53.812Z,12.43
2019-05-05T04:36:23.553Z,19.07
2019-05-05T04:38:54.407Z,16.90
2019-05-05T04:41:24.525Z,16.67
2019-05-05T04:43:54.753Z,13.47
2019-05-05T04:46:24.544Z,12.10
2019-05-05T04:48:57.874Z,15.27
2019-05-05T04:51:28.305Z,14.43
2019-05-05T04:54:07.847Z,14.27
2019-05-05T04:56:36.720Z,25.67
2019-05-05T04:59:05.566Z,37.77
2019-05-05T05:01:34.959Z,38.77
2019-05-05T05:04:05.362Z,43.00
2019-05-05T05:06:47.425Z,39.00
2019-05-05T05:09:16.276Z,36.97
2019-05-05T05:11:45.127Z,35.60
2019-05-05T05:14:14.471Z,29.73
2019-05-05T05:16:43.769Z,23.07
2019-05-05T05:19:13.744Z,19.67
2019-05-05T05:21:43.693Z,19.10
2019-05-05T05:24:14.499Z,20.93
2019-05-05T05:26:44.137Z,28.77
2019-05-05T05:29:15.093Z,24.30
2019-05-05T05:31:44.246Z,27.93
2019-05-05T05:34:14.823Z,19.70
2019-05-05T05:36:44.368Z,17.33
2019-05-05T05:39:24.429Z,19.37
2019-05-05T05:41:54.174Z,17.13
2019-05-05T05:44:40.794Z,17.93
2019-05-05T05:47:17.040Z,19.30
2019-05-05T05:49:47.464Z,19.37
2019-05-05T05:52:19.322Z,29.43
2019-05-05T05:54:46.909Z,23.37
2019-05-05T05:57:15.770Z,22.47
2019-05-05T05:59:44.620Z,21.30
2019-05-05T06:02:15.582Z,17.43
2019-05-05T06:04:44.750Z,14.30
2019-05-05T06:07:14.253Z,17.80
2019-05-05T06:09:43.853Z,14.43
2019-05-05T06:12:14.202Z,15.17
2019-05-05T06:14:44.701Z,11.90
2019-05-05T06:17:13.865Z,14.43
2019-05-05T06:19:44.656Z,17.17
2019-05-05T06:22:15.192Z,15.07
2019-05-05T06:24:44.014Z,18.73
2019-05-05T06:27:14.313Z,15.70
2019-05-05T06:29:43.799Z,19.23
2019-05-05T06:32:14.547Z,19.70
2019-05-05T06:34:44.301Z,20.60
2019-05-05T06:37:14.513Z,18.27
2019-05-05T06:39:43.964Z,16.83
2019-05-05T06:42:21.182Z,14.47
2019-05-05T06:44:53.413Z,15.43
2019-05-05T06:47:23.676Z,16.07
2019-05-05T06:49:54.169Z,12.57
2019-05-05T06:52:24.844Z,12.43
2019-05-05T06:54:54.296Z,12.47
2019-05-05T06:57:24.037Z,8.83
2019-05-05T06:59:54.447Z,10.93
2019-05-05T07:02:23.813Z,9.20
2019-05-05T07:04:54.660Z,11.77
2019-05-05T07:07:23.718Z,9.23
2019-05-05T07:09:54.324Z,11.13
2019-05-05T07:12:24.160Z,9.53
2019-05-05T07:14:53.832Z,10.90
2019-05-05T07:17:24.542Z,10.73
2019-05-05T07:19:54.380Z,13.30
2019-05-05T07:22:24.541Z,9.93
2019-05-05T07:24:54.235Z,11.77
2019-05-05T07:27:24.333Z,14.23
2019-05-05T07:29:54.375Z,10.73
2019-05-05T07:32:24.548Z,14.13
2019-05-05T07:35:01.491Z,14.40
2019-05-05T07:37:30.326Z,14.70
2019-05-05T07:39:59.175Z,10.43
2019-05-05T07:42:28.101Z,14.03
2019-05-05T07:44:56.948Z,10.00
2019-05-05T07:47:25.782Z,11.17
2019-05-05T07:49:54.675Z,9.67
2019-05-05T07:52:23.854Z,15.17
2019-05-05T07:54:54.993Z,16.17
2019-05-05T07:57:23.874Z,14.50
2019-05-05T07:59:54.026Z,12.83
2019-05-05T08:02:23.778Z,12.50
2019-05-05T08:04:54.463Z,16.87
2019-05-05T08:07:24.037Z,13.47
2019-05-05T08:09:53.734Z,20.87
2019-05-05T08:12:24.767Z,20.23
2019-05-05T08:14:53.767Z,25.20
2019-05-05T08:17:30.231Z,23.83
2019-05-05T08:20:00.678Z,21.73
2019-05-05T08:22:29.528Z,24.23
2019-05-05T08:25:00.041Z,25.20
2019-05-05T08:27:30.482Z,30.67
2019-05-05T08:30:03.088Z,32.83
2019-05-05T08:32:35.786Z,28.30
2019-05-05T08:35:06.862Z,18.40
2019-05-05T08:37:35.690Z,23.20
2019-05-05T08:40:06.926Z,20.73
2019-05-05T08:42:35.786Z,24.17
2019-05-05T08:45:05.746Z,32.03
2019-05-05T08:47:34.686Z,30.60
2019-05-05T08:50:05.092Z,22.40
2019-05-05T08:52:34.342Z,36.83
2019-05-05T08:55:04.657Z,27.03
2019-05-05T08:57:34.096Z,30.20
2019-05-05T09:00:04.973Z,31.33
2019-05-05T09:02:35.978Z,40.27
2019-05-05T09:05:05.955Z,28.17
2019-05-05T09:07:34.801Z,28.83
2019-05-05T09:10:04.807Z,25.57
2019-05-05T09:12:33.964Z,23.63
2019-05-05T09:15:04.439Z,21.67
2019-05-05T09:17:33.960Z,19.13
2019-05-05T09:20:04.526Z,19.97
2019-05-05T09:22:34.822Z,22.00
2019-05-05T09:25:06.962Z,21.70
2019-05-05T09:27:46.582Z,21.00
2019-05-05T09:30:17.863Z,18.20
2019-05-05T09:32:46.720Z,26.60
2019-05-05T09:35:15.574Z,20.87
2019-05-05T09:37:44.701Z,20.10
2019-05-05T09:40:15.848Z,19.07
2019-05-05T09:42:44.667Z,15.43
2019-05-05T09:45:14.072Z,13.20
2019-05-05T09:47:44.922Z,16.17
2019-05-05T09:50:14.393Z,13.40
2019-05-05T09:52:44.404Z,14.87
2019-05-05T09:55:13.949Z,10.67
2019-05-05T09:57:43.764Z,8.17
2019-05-05T10:00:14.061Z,10.60
2019-05-05T10:02:44.123Z,19.03
2019-05-05T10:05:14.480Z,9.73
2019-05-05T10:07:44.254Z,19.15
2019-05-05T10:10:13.868Z,25.27
2019-05-05T10:12:44.600Z,15.77
2019-05-05T10:15:14.404Z,22.83
2019-05-05T10:17:43.766Z,22.50
2019-05-05T10:20:14.556Z,18.67
2019-05-05T10:22:43.899Z,9.80
2019-05-05T10:25:31.396Z,16.37
2019-05-05T10:28:00.312Z,14.17
2019-05-05T10:30:29.142Z,13.83
2019-05-05T10:32:58.007Z,15.97
2019-05-05T10:35:26.901Z,22.87
2019-05-05T10:37:55.735Z,15.73
2019-05-05T10:40:35.245Z,9.00
2019-05-05T10:43:04.701Z,9.70
2019-05-05T10:45:33.632Z,5.23
2019-05-05T10:48:04.049Z,7.53
2019-05-05T10:50:34.129Z,7.87
2019-05-05T10:53:04.582Z,5.70
2019-05-05T10:55:34.633Z,25.60
2019-05-05T10:58:03.912Z,23.77
2019-05-05T11:00:44.641Z,14.20
2019-05-05T11:03:14.874Z,12.47
2019-05-05T11:05:44.927Z,5.80
2019-05-05T11:08:14.091Z,20.50
2019-05-05T11:10:45.025Z,11.40
2019-05-05T11:13:13.433Z,7.73
2019-05-05T11:15:44.365Z,7.63
2019-05-05T11:18:14.863Z,11.43
2019-05-05T11:20:44.654Z,9.70
2019-05-05T11:23:14.849Z,16.10
2019-05-05T11:25:44.593Z,24.40
2019-05-05T11:28:13.745Z,15.90
2019-05-05T11:30:45.705Z,33.50
2019-05-05T11:33:16.213Z,22.90
2019-05-05T11:35:49.276Z,8.57
2019-05-05T11:38:18.141Z,21.37
2019-05-05T11:40:46.970Z,7.23
2019-05-05T11:43:15.807Z,9.33
2019-05-05T11:45:44.702Z,7.50
2019-05-05T11:48:14.775Z,6.43
2019-05-05T11:50:43.914Z,10.70
2019-05-05T11:53:14.585Z,10.27
2019-05-05T11:55:44.259Z,5.90
2019-05-05T11:58:14.316Z,35.07
2019-05-05T12:00:44.256Z,14.27
2019-05-05T12:03:14.375Z,7.87
2019-05-05T12:05:44.305Z,11.43
2019-05-05T12:08:14.621Z,12.17
2019-05-05T12:10:51.057Z,18.27
2019-05-05T12:13:19.948Z,9.20
2019-05-05T12:15:50.367Z,24.83
2019-05-05T12:18:19.218Z,12.20
2019-05-05T12:20:48.115Z,22.23
2019-05-05T12:23:16.962Z,15.80
2019-05-05T12:25:57.003Z,9.60
2019-05-05T12:28:25.241Z,9.97
2019-05-05T12:30:56.898Z,8.73
2019-05-05T12:33:25.735Z,16.40
2019-05-05T12:35:54.580Z,8.17
2019-05-05T12:38:24.424Z,19.10
2019-05-05T12:40:53.644Z,19.63
2019-05-05T12:43:24.552Z,14.43
2019-05-05T12:45:54.667Z,13.47
2019-05-05T12:48:28.057Z,9.57
2019-05-05T12:50:56.896Z,8.13
2019-05-05T12:53:25.988Z,9.90
2019-05-05T12:55:54.832Z,8.20
2019-05-05T12:58:23.667Z,7.87
2019-05-05T13:00:56.867Z,8.13
2019-05-05T13:03:25.725Z,11.60
2019-05-05T13:05:54.586Z,9.00
2019-05-05T13:08:23.916Z,11.77
2019-05-05T13:10:53.503Z,9.93
2019-05-05T13:13:22.408Z,8.20
2019-05-05T13:15:51.311Z,8.40
2019-05-05T13:18:20.139Z,4.90
2019-05-05T13:20:53.756Z,6.17
2019-05-05T13:23:39.828Z,7.27
2019-05-05T13:26:19.421Z,6.43
2019-05-05T13:28:48.317Z,8.17
2019-05-05T13:31:17.165Z,6.87
2019-05-05T13:33:46.015Z,5.67
2019-05-05T13:36:14.892Z,6.20
2019-05-05T13:38:43.914Z,6.50
2019-05-05T13:41:12.889Z,5.70
2019-05-05T13:43:41.811Z,5.90
2019-05-05T13:46:13.959Z,8.20
2019-05-05T13:48:44.400Z,7.10
2019-05-05T13:51:14.862Z,9.87
2019-05-05T13:53:44.828Z,5.33
2019-05-05T13:56:15.349Z,8.90
2019-05-05T13:58:44.288Z,21.63
2019-05-05T14:01:14.540Z,15.03
2019-05-05T14:03:44.745Z,40.97
2019-05-05T14:06:13.896Z,15.03
2019-05-05T14:08:44.808Z,23.27
2019-05-05T14:11:14.234Z,8.23
2019-05-05T14:13:44.861Z,9.03
2019-05-05T14:16:14.378Z,20.60
2019-05-05T14:18:43.328Z,5.27
2019-05-05T14:21:13.929Z,8.20
2019-05-05T14:24:00.487Z,5.63
2019-05-05T14:26:32.127Z,8.13
2019-05-05T14:28:59.893Z,9.40
2019-05-05T14:31:36.332Z,9.97
2019-05-05T14:34:06.756Z,6.37
2019-05-05T14:36:44.149Z,10.87
2019-05-05T14:39:14.894Z,11.50
2019-05-05T14:41:44.578Z,18.13
2019-05-05T14:44:13.724Z,9.97
2019-05-05T14:46:44.428Z,12.03
2019-05-05T14:49:14.087Z,6.97
2019-05-05T14:51:44.717Z,9.20
2019-05-05T14:54:14.843Z,5.73
2019-05-05T14:56:44.142Z,16.47
2019-05-05T14:59:14.220Z,40.93
2019-05-05T15:01:44.793Z,32.73
2019-05-05T15:04:15.477Z,11.20
2019-05-05T15:06:48.543Z,45.97
2019-05-05T15:09:18.982Z,29.87
2019-05-05T15:11:49.434Z,32.00
2019-05-05T15:14:18.337Z,12.87
2019-05-05T15:16:47.191Z,21.73
2019-05-05T15:19:16.127Z,17.53
2019-05-05T15:21:45.059Z,14.03
2019-05-05T15:24:14.027Z,16.23
2019-05-05T15:26:51.288Z,17.77
2019-05-05T15:29:14.096Z,13.17
2019-05-05T15:31:43.552Z,14.40
2019-05-05T15:34:12.520Z,13.70
2019-05-05T15:36:41.433Z,16.03
2019-05-05T15:39:10.304Z,41.37
2019-05-05T15:41:41.601Z,18.77
2019-05-05T15:44:09.713Z,24.80
2019-05-05T15:46:38.596Z,34.53
2019-05-05T15:49:07.479Z,17.70
2019-05-05T15:51:36.440Z,26.37
2019-05-05T15:54:05.305Z,20.20
2019-05-05T15:56:34.241Z,27.80
2019-05-05T15:59:03.172Z,28.93
2019-05-05T16:01:32.043Z,26.97
2019-05-05T16:04:00.895Z,25.90
2019-05-05T16:06:29.815Z,16.10
2019-05-05T16:08:58.674Z,30.07
2019-05-05T16:11:27.570Z,22.13
2019-05-05T16:13:56.505Z,25.17
2019-05-05T16:16:29.942Z,63.83
2019-05-05T16:19:05.513Z,27.90
2019-05-05T16:21:41.047Z,16.33
2019-05-05T16:24:11.527Z,15.53
2019-05-05T16:26:40.387Z,20.63
2019-05-05T16:29:09.250Z,16.93
2019-05-05T16:31:38.168Z,21.50
2019-05-05T16:34:07.044Z,19.17
2019-05-05T16:36:35.906Z,24.10
2019-05-05T16:39:06.587Z,22.90
2019-05-05T16:41:35.458Z,19.67
2019-05-05T16:44:05.100Z,24.83
2019-05-05T16:46:34.194Z,24.77
2019-05-05T16:49:03.550Z,22.30
2019-05-05T16:51:35.004Z,21.70
2019-05-05T16:54:05.616Z,18.30
2019-05-05T16:56:34.463Z,20.20
2019-05-05T16:59:03.363Z,20.03
2019-05-05T17:01:33.959Z,18.70
2019-05-05T17:04:11.298Z,24.60
2019-05-05T17:06:33.309Z,22.10
2019-05-05T17:09:04.533Z,16.37
2019-05-05T17:11:33.611Z,14.87
2019-05-05T17:14:09.948Z,16.70
2019-05-05T17:16:40.384Z,18.27
2019-05-05T17:19:19.679Z,18.20
2019-05-05T17:21:53.606Z,14.27
2019-05-05T17:24:23.980Z,14.23
2019-05-05T17:26:54.847Z,16.57
2019-05-05T17:29:23.687Z,17.87
2019-05-05T17:31:54.033Z,16.27
2019-05-05T17:34:24.683Z,22.00
2019-05-05T17:36:58.063Z,18.27
2019-05-05T17:39:28.603Z,25.27
2019-05-05T17:42:08.694Z,30.67
2019-05-05T17:44:48.219Z,29.20
2019-05-05T17:47:21.354Z,22.83
2019-05-05T17:50:04.266Z,31.57
2019-05-05T17:52:40.451Z,32.80
2019-05-05T17:55:27.712Z,37.57
2019-05-05T17:58:01.721Z,21.83
2019-05-05T18:00:29.885Z,26.57
2019-05-05T18:02:58.806Z,25.43
2019-05-05T18:05:45.497Z,29.50
2019-05-05T18:08:33.759Z,24.77
2019-05-05T18:11:04.375Z,12.93
2019-05-05T18:13:35.149Z,13.43
2019-05-05T18:16:04.580Z,17.00
2019-05-05T18:18:33.554Z,11.13
2019-05-05T18:21:02.432Z,15.03
2019-05-05T18:23:31.323Z,11.77
2019-05-05T18:26:00.174Z,13.23
2019-05-05T18:28:29.017Z,7.43
2019-05-05T18:30:57.921Z,9.63
2019-05-05T18:33:26.791Z,9.57
2019-05-05T18:35:55.655Z,11.77
2019-05-05T18:38:24.552Z,12.40
2019-05-05T18:40:54.710Z,14.20
2019-05-05T18:43:28.023Z,10.93
2019-05-05T18:46:04.802Z,15.93
2019-05-05T18:48:34.514Z,14.70
2019-05-05T18:51:03.984Z,14.27
2019-05-05T18:53:34.160Z,20.40
2019-05-05T18:56:03.745Z,17.83
2019-05-05T18:58:34.191Z,20.80
2019-05-05T19:01:07.760Z,18.27
2019-05-05T19:03:38.189Z,18.17
2019-05-05T19:06:17.473Z,17.37
2019-05-05T19:09:01.973Z,18.33
2019-05-05T19:11:30.477Z,17.40
2019-05-05T19:13:59.336Z,15.00
2019-05-05T19:16:28.187Z,13.60
2019-05-05T19:18:57.274Z,11.37
2019-05-05T19:21:30.672Z,21.03
2019-05-05T19:23:59.516Z,26.90
2019-05-05T19:26:28.417Z,22.30
2019-05-05T19:28:57.277Z,28.93
2019-05-05T19:31:26.145Z,25.83
2019-05-05T19:33:55.943Z,27.63
2019-05-05T19:36:27.428Z,33.87
2019-05-05T19:38:55.549Z,26.43
2019-05-05T19:41:24.493Z,29.17
2019-05-05T19:43:54.854Z,39.60
2019-05-05T19:46:26.201Z,37.00
2019-05-05T19:49:14.727Z,25.23
2019-05-05T19:51:44.584Z,22.03
2019-05-05T19:54:14.360Z,15.87
2019-05-05T19:56:44.896Z,24.80
2019-05-05T19:59:13.996Z,15.23
2019-05-05T20:01:44.843Z,16.93
2019-05-05T20:04:14.670Z,15.00
2019-05-05T20:06:44.320Z,16.57
2019-05-05T20:09:14.343Z,16.10
2019-05-05T20:11:43.933Z,17.70
2019-05-05T20:14:15.072Z,19.33
2019-05-05T20:17:04.009Z,15.73
2019-05-05T20:19:34.998Z,15.60
2019-05-05T20:22:03.854Z,15.80
2019-05-05T20:24:33.736Z,21.87
2019-05-05T20:27:04.582Z,24.17
2019-05-05T20:29:37.059Z,20.87
2019-05-05T20:32:04.421Z,16.27
2019-05-05T20:34:37.891Z,17.10
2019-05-05T20:37:13.970Z,15.87
2019-05-05T20:39:44.011Z,13.17
2019-05-05T20:42:14.665Z,13.23
2019-05-05T20:44:43.757Z,12.13
2019-05-05T20:47:12.959Z,13.07
2019-05-05T20:49:41.832Z,11.60
2019-05-05T20:52:14.029Z,12.57
2019-05-05T20:54:44.122Z,12.93
2019-05-05T20:57:13.115Z,11.90
2019-05-05T20:59:42.024Z,12.77
2019-05-05T21:02:13.542Z,10.70
2019-05-05T21:04:44.598Z,11.97
2019-05-05T21:07:14.109Z,25.60
2019-05-05T21:09:43.127Z,25.73
2019-05-05T21:12:13.845Z,11.30
2019-05-05T21:14:44.587Z,13.00
2019-05-05T21:17:13.663Z,20.23
2019-05-05T21:19:42.714Z,17.80
2019-05-05T21:22:28.591Z,12.70
2019-05-05T21:24:58.441Z,29.70
2019-05-05T21:27:27.288Z,31.47
2019-05-05T21:29:56.207Z,30.93
2019-05-05T21:32:25.387Z,24.93
2019-05-05T21:34:54.324Z,18.47
2019-05-05T21:37:24.909Z,17.63
2019-05-05T21:39:55.161Z,16.80
2019-05-05T21:42:24.271Z,14.70
2019-05-05T21:44:53.916Z,11.47
2019-05-05T21:47:23.948Z,11.83
2019-05-05T21:49:54.189Z,10.47
2019-05-05T21:52:24.938Z,13.07
2019-05-05T21:55:01.173Z,13.93
2019-05-05T21:57:37.654Z,13.50
2019-05-05T22:00:09.732Z,17.30
2019-05-05T22:02:38.619Z,16.17
2019-05-05T22:05:07.933Z,13.50
2019-05-05T22:07:36.804Z,14.13
2019-05-05T22:10:06.554Z,13.70
2019-05-05T22:12:36.362Z,16.13
2019-05-05T22:15:09.389Z,11.87
2019-05-05T22:17:38.301Z,15.20
2019-05-05T22:20:11.641Z,16.17
2019-05-05T22:22:42.051Z,14.27
2019-05-05T22:25:10.910Z,14.83
2019-05-05T22:27:43.985Z,14.73
2019-05-05T22:30:14.194Z,14.67
2019-05-05T22:32:45.405Z,15.37
2019-05-05T22:35:16.342Z,13.10
2019-05-05T22:37:45.306Z,9.20
2019-05-05T22:40:24.452Z,12.37
2019-05-05T22:42:54.500Z,14.80
2019-05-05T22:45:23.698Z,17.00
2019-05-05T22:47:54.314Z,13.70
2019-05-05T22:50:24.671Z,8.67
2019-05-05T22:52:54.511Z,9.37
2019-05-05T22:55:43.782Z,7.17
2019-05-05T22:58:14.199Z,7.83
2019-05-05T23:00:43.755Z,5.67
2019-05-05T23:03:33.609Z,6.23
2019-05-05T23:06:04.394Z,6.27
2019-05-05T23:08:35.091Z,6.07
2019-05-05T23:11:04.152Z,5.87
2019-05-05T23:13:34.661Z,7.67
2019-05-05T23:16:23.752Z,9.67
2019-05-05T23:18:54.727Z,9.27
2019-05-05T23:21:28.206Z,8.10
2019-05-05T23:24:07.680Z,8.80
2019-05-05T23:26:38.096Z,6.13
2019-05-05T23:29:06.950Z,7.67
2019-05-05T23:31:37.360Z,8.83
2019-05-05T23:34:16.407Z,7.60
2019-05-05T23:36:41.013Z,6.97
2019-05-05T23:39:10.248Z,5.07
2019-05-05T23:41:39.097Z,6.93
2019-05-05T23:44:07.982Z,5.93
2019-05-05T23:46:36.817Z,4.80
2019-05-05T23:49:05.788Z,5.70
2019-05-05T23:51:34.944Z,5.10
2019-05-05T23:54:04.424Z,7.80
2019-05-05T23:56:34.935Z,6.17
2019-05-05T23:59:04.381Z,4.90
